createdAt,value
2022-10-25T00:03:10.841Z,101501.19
2022-10-25T00:08:09.121Z,101360.44
2022-10-25T00:13:06.504Z,101417.25
2022-10-25T00:18:14.010Z,101481.97
2022-10-25T00:23:14.409Z,101344.75
2022-10-25T00:28:16.794Z,101409.41
2022-10-25T00:33:14.036Z,101476.06
2022-10-25T00:38:12.051Z,101474.56
2022-10-25T00:43:09.921Z,101442.16
2022-10-25T00:48:11.711Z,101395.44
2022-10-25T00:53:13.715Z,101397.94
2022-10-25T00:58:14.583Z,101449.25
2022-10-25T01:03:12.562Z,101404.16
2022-10-25T01:08:12.711Z,101458.53
2022-10-25T01:13:10.448Z,101431.66
2022-10-25T01:18:15.070Z,101439.03
2022-10-25T01:23:28.082Z,101351.19
2022-10-25T01:28:37.731Z,101424.28
2022-10-25T01:33:49.819Z,101381.00
2022-10-25T01:38:51.324Z,101419.66
2022-10-25T01:44:00.519Z,101371.91
2022-10-25T01:49:02.940Z,101408.38
2022-10-25T01:53:59.796Z,101387.94
2022-10-25T01:59:23.429Z,101290.69
2022-10-25T02:04:33.392Z,101405.91
2022-10-25T02:09:33.744Z,101408.75
2022-10-25T02:14:35.064Z,101351.06
2022-10-25T02:19:35.552Z,101400.75
2022-10-25T02:24:35.788Z,101378.69
2022-10-25T02:29:35.371Z,101359.16
2022-10-25T02:34:33.426Z,101340.41
2022-10-25T02:39:33.953Z,101311.31
2022-10-25T02:44:31.178Z,101337.38
2022-10-25T02:49:28.371Z,101367.31
2022-10-25T02:54:26.123Z,101276.41
2022-10-25T02:59:23.355Z,101370.38
2022-10-25T03:04:20.295Z,101386.72
2022-10-25T03:09:17.284Z,101391.56
2022-10-25T03:14:18.182Z,101368.16
2022-10-25T03:19:15.176Z,101378.53
2022-10-25T03:24:12.056Z,101347.63
2022-10-25T03:29:08.987Z,101378.38
2022-10-25T03:34:06.683Z,101365.69
2022-10-25T03:39:03.586Z,101360.66
2022-10-25T03:44:00.474Z,101373.25
2022-10-25T03:48:57.300Z,101338.56
2022-10-25T03:53:54.836Z,101375.88
2022-10-25T03:58:53.371Z,101357.00
2022-10-25T04:03:51.626Z,101306.34
2022-10-25T04:08:48.828Z,101271.75
2022-10-25T04:13:48.271Z,101354.69
2022-10-25T04:18:45.270Z,101333.19
2022-10-25T04:23:54.335Z,101373.56
2022-10-25T04:29:09.787Z,101370.91
2022-10-25T04:34:27.210Z,101307.47
2022-10-25T04:39:25.676Z,101367.53
2022-10-25T04:44:23.505Z,101385.88
2022-10-25T04:49:21.574Z,101321.09
2022-10-25T04:54:18.703Z,101376.13
2022-10-25T04:59:24.360Z,101354.69
2022-10-25T05:04:32.721Z,101385.41
2022-10-25T05:09:33.240Z,101383.09
2022-10-25T05:14:33.563Z,101354.94
2022-10-25T05:19:32.284Z,101337.31
2022-10-25T05:24:29.581Z,101355.91
2022-10-25T05:29:26.848Z,101356.47
2022-10-25T05:34:24.508Z,101291.66
2022-10-25T05:39:37.037Z,101398.25
2022-10-25T05:44:39.223Z,101336.97
2022-10-25T05:49:41.943Z,101298.63
2022-10-25T05:54:40.154Z,101383.06
2022-10-25T05:59:37.030Z,101416.28
2022-10-25T06:04:34.387Z,101383.81
2022-10-25T06:15:18.275Z,101397.47
2022-10-25T06:20:17.287Z,101368.94
2022-10-25T06:25:19.639Z,101445.00
2022-10-25T06:30:16.838Z,101393.94
2022-10-25T06:35:56.062Z,101404.59
2022-10-25T06:40:52.184Z,101324.16
2022-10-25T06:45:49.287Z,101404.16
2022-10-25T06:50:48.554Z,101388.47
2022-10-25T06:55:48.992Z,101378.94
2022-10-25T07:00:48.892Z,101374.25
2022-10-25T07:05:46.717Z,101352.66
2022-10-25T07:10:55.246Z,101409.69
2022-10-25T07:15:56.377Z,101350.41
2022-10-25T07:21:06.657Z,101416.81
2022-10-25T07:26:11.066Z,101385.28
2022-10-25T07:31:19.393Z,101393.38
2022-10-25T07:36:18.513Z,101410.81
2022-10-25T07:41:27.052Z,101379.34
2022-10-25T07:46:24.782Z,101378.31
2022-10-25T07:51:22.207Z,101374.41
2022-10-25T07:56:23.491Z,101337.19
2022-10-25T08:01:26.648Z,101357.50
2022-10-25T08:06:25.334Z,101356.75
2022-10-25T08:11:22.168Z,101367.81
2022-10-25T08:16:19.126Z,101334.94
2022-10-25T08:21:16.645Z,101299.25
2022-10-25T08:26:24.524Z,101301.25
2022-10-25T08:31:31.322Z,101300.19
2022-10-25T08:36:29.052Z,101257.00
2022-10-25T08:41:33.972Z,101334.38
2022-10-25T08:46:34.083Z,101343.72
2022-10-25T08:51:41.662Z,101254.84
2022-10-25T08:56:46.586Z,101305.56
2022-10-25T09:01:47.363Z,101291.78
2022-10-25T09:06:56.241Z,101305.19
2022-10-25T09:12:05.312Z,101322.63
2022-10-25T09:17:23.755Z,101225.88
2022-10-25T09:22:27.523Z,101302.31
2022-10-25T09:27:34.930Z,101295.56
2022-10-25T09:32:52.683Z,101326.94
2022-10-25T09:37:55.345Z,101254.50
2022-10-25T09:42:56.371Z,101296.63
2022-10-25T09:48:01.808Z,101285.44
2022-10-25T09:53:09.923Z,101255.72
2022-10-25T09:58:16.091Z,101230.44
2022-10-25T10:03:14.275Z,101279.72
2022-10-25T10:08:17.375Z,101286.41
2022-10-25T10:13:20.219Z,101257.84
2022-10-25T10:18:29.116Z,101229.13
2022-10-25T10:23:28.433Z,101253.03
2022-10-25T10:28:25.576Z,101264.84
2022-10-25T10:33:23.043Z,101207.03
2022-10-25T10:43:30.205Z,101237.38
2022-10-25T10:48:36.717Z,101215.13
2022-10-25T10:53:37.415Z,101243.66
2022-10-25T10:58:38.503Z,101211.44
2022-10-25T11:03:59.141Z,101214.16
2022-10-25T11:09:15.630Z,101159.31
2022-10-25T11:14:15.139Z,101213.34
2022-10-25T11:19:26.937Z,101152.66
2022-10-25T11:24:32.012Z,101206.03
2022-10-25T11:30:03.605Z,101197.91
2022-10-25T11:35:10.101Z,101214.25
2022-10-25T11:40:15.995Z,101208.66
2022-10-25T11:51:14.318Z,101143.09
2022-10-25T11:56:23.171Z,101162.19
2022-10-25T12:01:35.207Z,101143.53
2022-10-25T12:06:40.386Z,101103.47
2022-10-25T12:11:53.463Z,101148.09
2022-10-25T12:17:23.771Z,101137.13
2022-10-25T12:22:30.820Z,101113.94
2022-10-25T12:27:44.172Z,101149.97
2022-10-25T12:32:49.917Z,101144.22
2022-10-25T12:38:18.185Z,101103.16
2022-10-25T12:43:24.034Z,101164.09
2022-10-25T12:48:50.028Z,101164.09
2022-10-25T12:54:12.665Z,101164.47
2022-10-25T12:59:34.439Z,101107.19
2022-10-25T13:05:31.221Z,101078.25
2022-10-25T13:10:57.953Z,101135.47
2022-10-25T13:16:04.330Z,101118.09
2022-10-25T13:21:02.415Z,101073.34
2022-10-25T13:26:09.176Z,101113.22
2022-10-25T13:32:01.337Z,101135.59
2022-10-25T13:37:00.252Z,101132.91
2022-10-25T13:42:10.367Z,101105.94
2022-10-25T13:47:28.682Z,101120.56
2022-10-25T13:52:30.952Z,101054.13
2022-10-25T13:58:10.431Z,101134.78
2022-10-25T14:03:46.870Z,101087.75
2022-10-25T14:08:54.611Z,101104.06
2022-10-25T14:14:02.304Z,101118.66
2022-10-25T14:19:07.170Z,101109.34
2022-10-25T14:24:12.163Z,101025.41
2022-10-25T14:29:32.603Z,101087.69
2022-10-25T14:34:33.482Z,101030.06
2022-10-25T14:40:05.642Z,101026.09
2022-10-25T14:45:41.108Z,101119.00
2022-10-25T14:50:56.938Z,101090.47
2022-10-25T14:55:59.644Z,101115.00
2022-10-25T15:01:05.290Z,101093.88
2022-10-25T15:06:07.507Z,101022.09
2022-10-25T15:11:10.406Z,101065.88
2022-10-25T15:16:37.778Z,101038.53
2022-10-25T15:21:43.238Z,101098.59
2022-10-25T15:27:01.367Z,101060.50
2022-10-25T15:32:02.492Z,101112.88
2022-10-25T15:37:16.357Z,101066.50
2022-10-25T15:47:28.961Z,101107.22
2022-10-25T15:52:27.535Z,101079.72
2022-10-25T15:57:28.142Z,101099.75
2022-10-25T16:03:38.846Z,101094.63
2022-10-25T16:08:38.099Z,101099.63
2022-10-25T16:13:38.827Z,101106.09
2022-10-25T16:18:38.572Z,101073.03
2022-10-25T16:23:40.879Z,101139.22
2022-10-25T16:28:54.303Z,101139.25
2022-10-25T16:34:10.988Z,101081.25
2022-10-25T16:39:12.154Z,101157.69
2022-10-25T16:44:18.049Z,101160.25
2022-10-25T16:49:21.279Z,101147.59
2022-10-25T16:54:30.284Z,101134.78
2022-10-25T16:59:28.770Z,101079.91
2022-10-25T17:04:28.118Z,101117.94
2022-10-25T17:09:29.668Z,101150.03
2022-10-25T17:14:35.062Z,101107.19
2022-10-25T17:19:36.969Z,101158.31
2022-10-25T17:24:39.053Z,101177.47
2022-10-25T17:29:38.137Z,101175.06
2022-10-25T17:34:38.810Z,101121.53
2022-10-25T17:39:59.096Z,101081.22
2022-10-25T17:45:16.635Z,101125.84
2022-10-25T17:50:16.687Z,101199.84
2022-10-25T17:55:18.898Z,101148.34
2022-10-25T18:00:16.828Z,101171.47
2022-10-25T18:05:20.203Z,101147.59
2022-10-25T18:10:19.182Z,101085.78
2022-10-25T18:15:16.413Z,101106.97
2022-10-25T18:20:17.683Z,101163.38
2022-10-25T18:25:15.108Z,101161.31
2022-10-25T18:30:16.839Z,101194.66
2022-10-25T18:35:14.345Z,101152.94
2022-10-25T18:40:13.731Z,101148.44
2022-10-25T18:45:10.627Z,101221.34
2022-10-25T18:50:11.626Z,101195.34
2022-10-25T18:55:09.116Z,101191.94
2022-10-25T19:00:08.392Z,101189.22
2022-10-25T19:10:03.715Z,101250.50
2022-10-25T19:15:00.713Z,101239.34
2022-10-25T19:20:04.137Z,101187.25
2022-10-25T19:25:04.987Z,101253.53
2022-10-25T19:30:02.182Z,101193.69
2022-10-25T19:34:59.458Z,101242.56
2022-10-25T19:39:58.243Z,101250.56
2022-10-25T19:44:56.906Z,101265.00
2022-10-25T19:49:53.796Z,101250.03
2022-10-25T19:54:50.940Z,101200.81
2022-10-25T19:59:47.961Z,101175.66
2022-10-25T20:04:45.753Z,101279.66
2022-10-25T20:09:47.272Z,101222.06
2022-10-25T20:14:44.428Z,101244.81
2022-10-25T20:19:41.469Z,101249.44
2022-10-25T20:24:39.401Z,101217.72
2022-10-25T20:29:44.796Z,101269.22
2022-10-25T20:34:41.832Z,101195.84
2022-10-25T20:39:39.693Z,101265.00
2022-10-25T20:44:36.924Z,101192.81
2022-10-25T20:49:34.537Z,101241.41
2022-10-25T20:54:34.423Z,101287.06
2022-10-25T20:59:33.205Z,101255.72
2022-10-25T21:04:52.771Z,101266.09
2022-10-25T21:09:49.504Z,101324.41
2022-10-25T21:14:47.526Z,101331.91
2022-10-25T21:19:44.589Z,101313.38
2022-10-25T21:24:41.527Z,101316.16
2022-10-25T21:29:39.537Z,101338.22
2022-10-25T21:34:37.106Z,101333.34
2022-10-25T21:39:33.936Z,101262.44
2022-10-25T21:44:30.751Z,101348.25
2022-10-25T21:49:27.716Z,101288.63
2022-10-25T21:54:27.689Z,101349.00
2022-10-25T21:59:24.638Z,101349.34
2022-10-25T22:04:23.242Z,101337.69
2022-10-25T22:09:20.258Z,101354.50
2022-10-25T22:14:18.023Z,101302.06
2022-10-25T22:19:16.705Z,101370.41
2022-10-25T22:24:14.167Z,101376.03
2022-10-25T22:29:12.876Z,101371.91
2022-10-25T22:34:10.401Z,101380.03
2022-10-25T22:39:08.015Z,101308.53
2022-10-25T22:44:05.206Z,101383.28
2022-10-25T22:49:05.657Z,101394.06
2022-10-25T22:54:03.513Z,101400.47
2022-10-25T22:59:02.688Z,101344.47
2022-10-25T23:04:01.008Z,101401.34
2022-10-25T23:08:59.831Z,101415.28
2022-10-25T23:14:01.023Z,101345.34
2022-10-25T23:18:59.915Z,101425.88
2022-10-25T23:23:58.056Z,101377.69
2022-10-25T23:28:55.809Z,101399.97
2022-10-25T23:33:54.879Z,101409.69
2022-10-25T23:38:52.947Z,101441.06
2022-10-25T23:43:50.431Z,101411.63
2022-10-25T23:48:47.500Z,101456.28
2022-10-25T23:53:45.215Z,101408.38
2022-10-25T23:58:42.715Z,101494.06
